createdAt,value
2023-05-15T00:01:54.665Z,11.00
2023-05-15T00:04:23.741Z,11.50
2023-05-15T00:06:53.273Z,10.23
2023-05-15T00:09:22.316Z,10.82
2023-05-15T00:11:52.405Z,10.90
2023-05-15T00:14:21.414Z,17.30
2023-05-15T00:16:59.350Z,12.77
2023-05-15T00:19:28.699Z,13.40
2023-05-15T00:21:57.792Z,14.02
2023-05-15T00:24:26.949Z,16.10
2023-05-15T00:26:56.055Z,14.93
2023-05-15T00:29:25.366Z,14.27
2023-05-15T00:31:54.666Z,12.88
2023-05-15T00:34:24.212Z,11.95
2023-05-15T00:36:53.369Z,14.02
2023-05-15T00:39:22.541Z,19.25
2023-05-15T00:41:53.167Z,12.82
2023-05-15T00:44:23.224Z,13.50
2023-05-15T00:46:53.436Z,14.35
2023-05-15T00:49:25.245Z,11.35
2023-05-15T00:51:54.846Z,12.52
2023-05-15T00:54:23.942Z,11.77
2023-05-15T00:56:53.036Z,12.95
2023-05-15T00:59:24.264Z,13.05
2023-05-15T01:01:53.416Z,16.20
2023-05-15T01:04:24.066Z,15.75
2023-05-15T01:06:56.489Z,16.10
2023-05-15T01:09:31.668Z,16.58
2023-05-15T01:12:02.229Z,12.98
2023-05-15T01:14:31.306Z,12.82
2023-05-15T01:17:00.424Z,12.52
2023-05-15T01:19:29.942Z,12.63
2023-05-15T01:22:29.584Z,10.50
2023-05-15T01:25:15.747Z,16.10
2023-05-15T01:27:56.200Z,13.38
2023-05-15T01:30:40.208Z,14.15
2023-05-15T01:33:16.937Z,13.05
2023-05-15T01:36:13.652Z,13.57
2023-05-15T01:38:57.108Z,15.43
2023-05-15T01:41:47.282Z,11.93
2023-05-15T01:44:19.430Z,18.83
2023-05-15T01:46:53.792Z,14.40
2023-05-15T01:49:26.249Z,12.38
2023-05-15T01:52:03.293Z,16.30
2023-05-15T01:54:34.414Z,12.77
2023-05-15T01:57:04.457Z,12.27
2023-05-15T01:59:34.746Z,15.00
2023-05-15T02:02:06.349Z,23.45
2023-05-15T02:04:36.495Z,12.60
2023-05-15T02:07:07.319Z,17.23
2023-05-15T02:09:37.279Z,28.90
2023-05-15T02:12:07.588Z,17.02
2023-05-15T02:14:38.443Z,13.85
2023-05-15T02:17:07.852Z,17.15
2023-05-15T02:19:37.028Z,16.48
2023-05-15T02:22:06.303Z,12.45
2023-05-15T02:24:35.375Z,16.52
2023-05-15T02:27:08.516Z,14.82
2023-05-15T02:30:02.250Z,16.27
2023-05-15T02:32:48.471Z,16.90
2023-05-15T02:35:35.871Z,23.08
2023-05-15T02:38:13.521Z,17.75
2023-05-15T02:40:43.415Z,14.20
2023-05-15T02:43:13.143Z,19.85
2023-05-15T02:45:42.530Z,14.75
2023-05-15T02:48:12.115Z,17.17
2023-05-15T02:50:41.670Z,13.00
2023-05-15T02:53:11.360Z,12.55
2023-05-15T02:55:40.513Z,13.32
2023-05-15T02:58:09.848Z,15.23
2023-05-15T03:00:38.913Z,19.10
2023-05-15T03:03:07.951Z,13.52
2023-05-15T03:05:37.046Z,12.05
2023-05-15T03:08:07.201Z,13.68
2023-05-15T03:10:36.475Z,16.15
2023-05-15T03:13:05.831Z,17.38
2023-05-15T03:15:34.915Z,16.02
2023-05-15T03:18:04.075Z,12.35
2023-05-15T03:20:33.218Z,11.82
2023-05-15T03:23:02.223Z,17.13
2023-05-15T03:25:31.454Z,15.25
2023-05-15T03:28:00.757Z,17.95
2023-05-15T03:30:30.052Z,14.32
2023-05-15T03:32:59.238Z,13.05
2023-05-15T03:35:31.585Z,15.38
2023-05-15T03:38:00.754Z,21.98
2023-05-15T03:40:29.920Z,12.65
2023-05-15T03:42:59.698Z,14.40
2023-05-15T03:45:30.316Z,10.57
2023-05-15T03:47:59.440Z,18.00
2023-05-15T03:50:29.837Z,13.50
2023-05-15T03:52:58.939Z,16.60
2023-05-15T03:55:28.186Z,15.90
2023-05-15T03:58:00.293Z,16.40
2023-05-15T04:00:29.372Z,14.93
2023-05-15T04:02:59.033Z,14.20
2023-05-15T04:05:28.562Z,13.43
2023-05-15T04:07:57.939Z,15.73
2023-05-15T04:10:27.107Z,15.15
2023-05-15T04:12:56.517Z,12.30
2023-05-15T04:15:28.220Z,13.63
2023-05-15T04:17:57.548Z,15.68
2023-05-15T04:20:27.347Z,12.45
2023-05-15T04:22:56.687Z,16.48
2023-05-15T04:25:26.674Z,12.55
2023-05-15T04:27:56.201Z,11.73
2023-05-15T04:30:31.988Z,11.50
2023-05-15T04:33:04.519Z,18.80
2023-05-15T04:35:34.659Z,14.27
2023-05-15T04:38:03.786Z,15.75
2023-05-15T04:40:33.079Z,15.20
2023-05-15T04:43:02.588Z,13.27
2023-05-15T04:45:31.669Z,20.23
2023-05-15T04:48:00.850Z,14.05
2023-05-15T04:50:30.780Z,18.65
2023-05-15T04:52:59.834Z,25.60
2023-05-15T04:55:28.849Z,17.40
2023-05-15T04:57:57.930Z,16.85
2023-05-15T05:00:32.071Z,14.40
2023-05-15T05:03:01.447Z,14.77
2023-05-15T05:05:32.264Z,19.42
2023-05-15T05:08:01.425Z,18.38
2023-05-15T05:10:30.629Z,18.50
2023-05-15T05:12:59.675Z,17.65
2023-05-15T05:15:28.752Z,18.40
2023-05-15T05:17:57.866Z,17.60
2023-05-15T05:20:27.190Z,18.77
2023-05-15T05:22:56.939Z,15.75
2023-05-15T05:25:27.182Z,19.65
2023-05-15T05:27:56.292Z,20.45
2023-05-15T05:30:25.385Z,15.88
2023-05-15T05:32:54.662Z,14.82
2023-05-15T05:35:24.129Z,18.00
2023-05-15T05:37:53.440Z,16.05
2023-05-15T05:40:22.799Z,13.30
2023-05-15T05:42:52.680Z,20.27
2023-05-15T05:45:25.759Z,17.45
2023-05-15T05:47:55.046Z,17.35
2023-05-15T05:50:32.024Z,14.63
2023-05-15T05:53:01.661Z,16.65
2023-05-15T05:55:30.707Z,17.30
2023-05-15T06:00:30.421Z,15.85
2023-05-15T06:03:01.081Z,14.88
2023-05-15T06:05:30.955Z,18.77
2023-05-15T06:08:02.236Z,18.85
2023-05-15T06:10:33.185Z,16.30
2023-05-15T06:13:05.777Z,20.23
2023-05-15T06:15:35.169Z,19.83
2023-05-15T06:18:04.644Z,18.55
2023-05-15T06:20:33.918Z,18.40
2023-05-15T06:23:03.514Z,18.92
2023-05-15T06:25:33.208Z,15.45
2023-05-15T06:28:02.415Z,15.10
2023-05-15T06:30:31.544Z,18.67
2023-05-15T06:33:00.817Z,16.67
2023-05-15T06:35:31.410Z,22.02
2023-05-15T06:38:00.445Z,21.83
2023-05-15T06:40:29.752Z,24.13
2023-05-15T06:42:59.976Z,15.73
2023-05-15T06:45:29.440Z,18.25
2023-05-15T06:48:01.455Z,15.18
2023-05-15T06:50:33.863Z,18.87
2023-05-15T06:53:03.174Z,15.65
2023-05-15T06:55:34.572Z,15.10
2023-05-15T06:58:03.929Z,20.50
2023-05-15T07:00:32.955Z,18.17
2023-05-15T07:03:01.976Z,17.90
2023-05-15T07:05:31.110Z,20.83
2023-05-15T07:08:00.172Z,16.90
2023-05-15T07:10:29.679Z,14.98
2023-05-15T07:13:04.033Z,18.38
2023-05-15T07:15:33.322Z,17.23
2023-05-15T07:18:02.558Z,18.10
2023-05-15T07:20:33.501Z,14.27
2023-05-15T07:23:05.133Z,19.57
2023-05-15T07:25:34.478Z,18.40
2023-05-15T07:28:03.538Z,18.70
2023-05-15T07:30:33.321Z,19.13
2023-05-15T07:33:03.018Z,21.92
2023-05-15T07:35:35.687Z,14.80
2023-05-15T07:38:10.154Z,18.48
2023-05-15T07:40:39.996Z,19.50
2023-05-15T07:43:09.471Z,21.15
2023-05-15T07:45:40.680Z,17.88
2023-05-15T07:48:20.657Z,21.05
2023-05-15T07:50:52.185Z,17.02
2023-05-15T07:53:22.940Z,19.58
2023-05-15T07:56:01.982Z,28.98
2023-05-15T07:58:31.121Z,21.55
2023-05-15T08:01:02.596Z,19.60
2023-05-15T08:03:32.958Z,17.90
2023-05-15T08:06:03.630Z,16.35
2023-05-15T08:08:33.486Z,21.02
2023-05-15T08:11:02.777Z,22.60
2023-05-15T08:13:32.128Z,18.92
2023-05-15T08:16:08.759Z,17.45
2023-05-15T08:18:37.977Z,18.98
2023-05-15T08:21:07.100Z,14.88
2023-05-15T08:23:40.260Z,16.30
2023-05-15T08:26:11.270Z,17.42
2023-05-15T08:28:42.315Z,20.48
2023-05-15T08:31:12.067Z,22.02
2023-05-15T08:33:41.197Z,20.13
2023-05-15T08:36:13.163Z,14.85
2023-05-15T08:38:42.247Z,18.55
2023-05-15T08:41:38.789Z,18.75
2023-05-15T08:44:12.395Z,17.23
2023-05-15T08:46:42.321Z,16.80
2023-05-15T08:49:47.455Z,21.17
2023-05-15T08:52:33.702Z,19.42
2023-05-15T08:55:03.390Z,19.02
2023-05-15T08:57:36.190Z,17.70
2023-05-15T09:00:17.803Z,21.50
2023-05-15T09:02:46.870Z,18.92
2023-05-15T09:05:15.966Z,19.67
2023-05-15T09:07:46.236Z,17.27
2023-05-15T09:10:16.402Z,19.08
2023-05-15T09:12:46.756Z,26.80
2023-05-15T09:15:24.586Z,19.42
2023-05-15T09:17:54.647Z,17.92
2023-05-15T09:20:31.966Z,18.30
2023-05-15T09:23:03.608Z,14.88
2023-05-15T09:26:07.754Z,15.10
2023-05-15T09:31:06.975Z,15.73
2023-05-15T09:33:39.150Z,21.55
2023-05-15T09:36:10.285Z,19.08
2023-05-15T09:38:43.974Z,21.50
2023-05-15T09:41:13.062Z,17.00
2023-05-15T09:43:42.838Z,17.77
2023-05-15T09:46:14.154Z,17.30
2023-05-15T09:48:43.312Z,19.65
2023-05-15T09:51:20.638Z,20.77
2023-05-15T09:53:54.531Z,21.42
2023-05-15T09:56:23.702Z,20.38
2023-05-15T09:59:00.580Z,20.92
2023-05-15T10:01:29.800Z,16.13
2023-05-15T10:04:08.828Z,17.25
2023-05-15T10:06:40.652Z,17.92
2023-05-15T10:09:12.283Z,22.73
2023-05-15T10:11:44.641Z,20.83
2023-05-15T10:14:15.742Z,17.23
2023-05-15T10:16:45.335Z,16.70
2023-05-15T10:19:15.822Z,16.00
2023-05-15T10:21:45.754Z,19.88
2023-05-15T10:24:15.876Z,23.48
2023-05-15T10:26:45.834Z,19.42
2023-05-15T10:29:18.297Z,16.70
2023-05-15T10:31:50.277Z,23.30
2023-05-15T10:34:20.302Z,16.10
2023-05-15T10:36:52.299Z,24.67
2023-05-15T10:39:22.226Z,23.02
2023-05-15T10:41:52.737Z,21.52
2023-05-15T10:44:23.384Z,21.85
2023-05-15T10:46:52.937Z,23.15
2023-05-15T10:49:22.036Z,20.80
2023-05-15T10:51:51.639Z,24.67
2023-05-15T10:54:20.831Z,25.17
2023-05-15T10:56:52.127Z,24.17
2023-05-15T10:59:21.579Z,19.83
2023-05-15T11:01:50.598Z,17.60
2023-05-15T11:04:20.833Z,20.77
2023-05-15T11:06:52.025Z,19.92
2023-05-15T11:09:24.762Z,19.63
2023-05-15T11:12:02.399Z,22.55
2023-05-15T11:14:42.645Z,21.85
2023-05-15T11:17:18.808Z,26.70
2023-05-15T11:19:53.841Z,19.17
2023-05-15T11:22:42.565Z,20.33
2023-05-15T11:25:17.181Z,23.83
2023-05-15T11:27:47.540Z,26.70
2023-05-15T11:30:26.151Z,30.05
2023-05-15T11:33:03.027Z,29.02
2023-05-15T11:35:43.344Z,32.15
2023-05-15T11:38:12.369Z,34.95
2023-05-15T11:40:57.021Z,30.00
2023-05-15T11:43:33.742Z,32.83
2023-05-15T11:46:05.533Z,31.60
2023-05-15T11:48:36.863Z,33.20
2023-05-15T11:51:07.336Z,34.17
2023-05-15T11:53:36.977Z,38.78
2023-05-15T11:56:06.182Z,33.72
2023-05-15T11:58:35.409Z,33.85
2023-05-15T12:01:04.416Z,29.73
2023-05-15T12:03:39.362Z,31.02
2023-05-15T12:06:08.900Z,36.45
2023-05-15T12:08:39.775Z,37.83
2023-05-15T12:11:09.274Z,32.40
2023-05-15T12:13:38.372Z,30.67
2023-05-15T12:16:07.817Z,34.25
2023-05-15T12:18:36.976Z,32.67
2023-05-15T12:21:07.227Z,30.88
2023-05-15T12:23:36.247Z,34.17
2023-05-15T12:26:07.988Z,31.02
2023-05-15T12:28:37.548Z,34.20
2023-05-15T12:31:06.971Z,33.00
2023-05-15T12:33:36.182Z,35.30
2023-05-15T12:36:05.421Z,33.97
2023-05-15T12:38:36.156Z,32.88
2023-05-15T12:41:05.400Z,38.72
2023-05-15T12:43:35.180Z,38.17
2023-05-15T12:46:04.305Z,37.08
2023-05-15T12:48:34.156Z,34.05
2023-05-15T12:51:10.105Z,36.47
2023-05-15T12:53:40.653Z,43.53
2023-05-15T12:56:18.324Z,43.35
2023-05-15T12:58:49.286Z,46.88
2023-05-15T13:01:18.974Z,47.25
2023-05-15T13:03:49.376Z,44.55
2023-05-15T13:06:19.176Z,47.90
2023-05-15T13:08:49.128Z,51.85
2023-05-15T13:11:19.477Z,50.83
2023-05-15T13:13:52.120Z,44.03
2023-05-15T13:16:30.559Z,47.33
2023-05-15T13:19:00.503Z,44.03
2023-05-15T13:21:30.993Z,45.75
2023-05-15T13:24:00.047Z,50.42
2023-05-15T13:26:29.257Z,45.00
2023-05-15T13:28:58.244Z,45.00
2023-05-15T13:31:27.835Z,47.33
2023-05-15T13:33:57.020Z,51.60
2023-05-15T13:36:26.046Z,46.58
2023-05-15T13:38:55.054Z,45.92
2023-05-15T13:41:24.246Z,48.97
2023-05-15T13:43:53.197Z,42.22
2023-05-15T13:46:22.254Z,41.88
2023-05-15T13:48:51.303Z,41.47
2023-05-15T13:51:20.404Z,36.75
2023-05-15T13:53:49.603Z,38.95
2023-05-15T13:56:18.691Z,41.97
2023-05-15T13:58:47.711Z,37.97
2023-05-15T14:01:16.800Z,43.22
2023-05-15T14:03:46.554Z,39.80
2023-05-15T14:06:15.762Z,35.45
2023-05-15T14:08:44.861Z,33.45
2023-05-15T14:11:13.915Z,42.50
2023-05-15T14:13:43.595Z,33.80
2023-05-15T14:16:12.615Z,40.45
2023-05-15T14:18:42.089Z,44.80
2023-05-15T14:21:11.232Z,31.35
2023-05-15T14:23:40.283Z,38.33
2023-05-15T14:26:09.236Z,36.75
2023-05-15T14:28:38.241Z,37.40
2023-05-15T14:31:07.213Z,38.78
2023-05-15T14:33:36.204Z,37.13
2023-05-15T14:36:05.866Z,32.55
2023-05-15T14:38:35.198Z,34.38
2023-05-15T14:41:04.229Z,32.53
2023-05-15T14:43:33.344Z,31.55
2023-05-15T14:46:02.647Z,34.60
2023-05-15T14:48:31.735Z,28.67
2023-05-15T14:51:01.875Z,37.92
2023-05-15T14:53:30.891Z,40.28
2023-05-15T14:56:00.199Z,35.50
2023-05-15T14:58:29.357Z,33.55
2023-05-15T15:00:58.856Z,39.58
2023-05-15T15:03:29.049Z,30.75
2023-05-15T15:05:59.481Z,40.13
2023-05-15T15:08:28.508Z,34.22
2023-05-15T15:10:57.517Z,26.88
2023-05-15T15:13:28.379Z,32.35
2023-05-15T15:15:57.916Z,37.78
2023-05-15T15:18:27.517Z,34.92
2023-05-15T15:20:56.513Z,35.85
2023-05-15T15:23:25.531Z,33.63
2023-05-15T15:25:54.585Z,33.75
2023-05-15T15:28:23.812Z,43.00
2023-05-15T15:30:52.837Z,35.15
2023-05-15T15:33:21.842Z,34.97
2023-05-15T15:35:50.833Z,40.28
2023-05-15T15:38:19.933Z,30.77
2023-05-15T15:40:48.979Z,35.40
2023-05-15T15:43:18.238Z,37.45
2023-05-15T15:45:47.333Z,36.00
2023-05-15T15:48:16.471Z,33.35
2023-05-15T15:50:45.779Z,38.58
2023-05-15T15:53:15.052Z,36.35
2023-05-15T15:55:45.154Z,34.75
2023-05-15T15:58:16.085Z,34.80
2023-05-15T16:00:45.128Z,35.17
2023-05-15T16:03:14.170Z,34.05
2023-05-15T16:05:43.193Z,34.00
2023-05-15T16:08:12.200Z,35.22
2023-05-15T16:10:41.195Z,32.70
2023-05-15T16:13:11.526Z,38.75
2023-05-15T16:15:40.707Z,33.90
2023-05-15T16:18:09.711Z,30.00
2023-05-15T16:20:38.708Z,35.00
2023-05-15T16:23:10.722Z,31.77
2023-05-15T16:25:39.854Z,34.50
2023-05-15T16:28:09.983Z,31.42
2023-05-15T16:30:48.207Z,37.78
2023-05-15T16:33:19.793Z,37.15
2023-05-15T16:35:49.228Z,36.97
2023-05-15T16:38:19.288Z,33.03
2023-05-15T16:40:48.722Z,32.38
2023-05-15T16:43:18.208Z,39.55
2023-05-15T16:45:47.476Z,40.33
2023-05-15T16:48:16.825Z,32.88
2023-05-15T16:50:45.955Z,39.00
2023-05-15T16:53:16.134Z,35.50
2023-05-15T16:55:45.364Z,33.67
2023-05-15T16:58:14.543Z,36.72
2023-05-15T17:00:43.513Z,32.53
2023-05-15T17:03:14.008Z,36.60
2023-05-15T17:05:43.043Z,39.10
2023-05-15T17:08:12.634Z,36.65
2023-05-15T17:10:42.264Z,41.75
2023-05-15T17:13:11.298Z,38.10
2023-05-15T17:15:40.317Z,35.70
2023-05-15T17:18:09.494Z,34.55
2023-05-15T17:20:38.488Z,39.30
2023-05-15T17:23:07.531Z,40.95
2023-05-15T17:25:36.627Z,38.03
2023-05-15T17:28:05.637Z,37.30
2023-05-15T17:30:34.663Z,35.45
2023-05-15T17:33:03.810Z,35.35
2023-05-15T17:35:33.362Z,33.83
2023-05-15T17:38:02.825Z,37.88
2023-05-15T17:40:31.789Z,38.60
2023-05-15T17:43:00.765Z,34.83
2023-05-15T17:45:29.737Z,34.80
2023-05-15T17:48:04.649Z,34.90
2023-05-15T17:50:36.030Z,37.40
2023-05-15T17:53:07.194Z,36.60
2023-05-15T17:55:36.689Z,35.13
2023-05-15T17:58:05.854Z,39.10
2023-05-15T18:00:34.950Z,35.42
2023-05-15T18:03:04.046Z,41.83
2023-05-15T18:05:33.256Z,42.40
2023-05-15T18:08:04.682Z,37.05
2023-05-15T18:10:33.823Z,34.60
2023-05-15T18:13:02.816Z,47.70
2023-05-15T18:15:36.391Z,39.63
2023-05-15T18:18:05.870Z,36.60
2023-05-15T18:20:34.994Z,37.15
2023-05-15T18:23:03.967Z,41.08
2023-05-15T18:25:37.871Z,33.13
2023-05-15T18:28:07.060Z,40.58
2023-05-15T18:30:36.810Z,37.25
2023-05-15T18:33:06.025Z,37.35
2023-05-15T18:35:35.037Z,37.25
2023-05-15T18:38:04.174Z,37.00
2023-05-15T18:40:33.469Z,39.28
2023-05-15T18:43:02.574Z,40.05
2023-05-15T18:45:31.730Z,35.75
2023-05-15T18:48:00.865Z,42.33
2023-05-15T18:50:29.869Z,44.75
2023-05-15T18:52:58.960Z,40.30
2023-05-15T18:55:31.097Z,42.17
2023-05-15T18:58:00.097Z,41.22
2023-05-15T19:00:37.857Z,37.00
2023-05-15T19:03:10.139Z,36.22
2023-05-15T19:05:39.245Z,33.83
2023-05-15T19:08:08.397Z,39.15
2023-05-15T19:10:37.353Z,38.92
2023-05-15T19:13:06.388Z,38.85
2023-05-15T19:15:35.370Z,37.78
2023-05-15T19:18:04.418Z,37.28
2023-05-15T19:20:33.461Z,36.72
2023-05-15T19:23:02.685Z,36.30
2023-05-15T19:25:32.299Z,35.42
2023-05-15T19:28:01.334Z,32.97
2023-05-15T19:30:30.379Z,38.17
2023-05-15T19:32:59.363Z,36.97
2023-05-15T19:35:28.418Z,40.05
2023-05-15T19:37:57.584Z,47.63
2023-05-15T19:40:26.834Z,43.90
2023-05-15T19:42:56.035Z,42.08
2023-05-15T19:45:25.313Z,36.25
2023-05-15T19:47:54.510Z,35.95
2023-05-15T19:50:23.663Z,39.20
2023-05-15T19:52:52.674Z,33.45
2023-05-15T19:55:21.657Z,37.17
2023-05-15T19:57:50.802Z,39.20
2023-05-15T20:00:20.159Z,42.00
2023-05-15T20:02:50.200Z,36.42
2023-05-15T20:05:19.360Z,38.38
2023-05-15T20:07:48.828Z,37.30
2023-05-15T20:10:19.701Z,39.88
2023-05-15T20:12:49.051Z,38.25
2023-05-15T20:15:18.352Z,45.10
2023-05-15T20:17:47.818Z,36.33
2023-05-15T20:20:17.875Z,45.65
2023-05-15T20:22:47.186Z,39.63
2023-05-15T20:25:19.276Z,38.35
2023-05-15T20:27:48.288Z,40.45
2023-05-15T20:30:17.624Z,39.72
2023-05-15T20:32:47.555Z,37.25
2023-05-15T20:35:17.148Z,38.40
2023-05-15T20:37:46.685Z,38.08
2023-05-15T20:40:17.285Z,40.92
2023-05-15T20:42:46.328Z,37.83
2023-05-15T20:45:15.814Z,38.35
2023-05-15T20:47:45.029Z,35.53
2023-05-15T20:50:14.248Z,37.40
2023-05-15T20:52:43.290Z,41.50
2023-05-15T20:55:21.330Z,38.13
2023-05-15T20:57:51.911Z,38.00
2023-05-15T21:00:21.449Z,44.33
2023-05-15T21:02:50.745Z,40.17
2023-05-15T21:05:20.099Z,42.35
2023-05-15T21:07:49.201Z,43.35
2023-05-15T21:10:18.332Z,38.88
2023-05-15T21:12:47.278Z,36.65
2023-05-15T21:15:16.361Z,36.00
2023-05-15T21:17:45.347Z,37.88
2023-05-15T21:20:14.553Z,36.08
2023-05-15T21:22:43.662Z,41.47
2023-05-15T21:25:13.503Z,40.20
2023-05-15T21:27:43.244Z,40.33
2023-05-15T21:30:12.798Z,39.95
2023-05-15T21:32:41.962Z,39.35
2023-05-15T21:35:11.446Z,35.75
2023-05-15T21:37:40.442Z,36.00
2023-05-15T21:40:10.241Z,40.35
2023-05-15T21:42:39.250Z,41.03
2023-05-15T21:45:08.952Z,38.47
2023-05-15T21:47:37.994Z,35.72
2023-05-15T21:50:08.221Z,40.95
2023-05-15T21:52:37.254Z,47.03
2023-05-15T21:55:06.660Z,40.55
2023-05-15T21:57:35.757Z,42.85
2023-05-15T22:00:05.726Z,45.13
2023-05-15T22:02:34.892Z,43.35
2023-05-15T22:05:05.043Z,39.30
2023-05-15T22:07:33.985Z,36.38
2023-05-15T22:10:04.684Z,39.92
2023-05-15T22:12:36.977Z,40.53
2023-05-15T22:15:06.565Z,37.60
2023-05-15T22:17:37.295Z,40.05
2023-05-15T22:20:12.613Z,39.45
2023-05-15T22:22:44.222Z,41.38
2023-05-15T22:25:13.363Z,37.53
2023-05-15T22:27:42.909Z,41.53
2023-05-15T22:30:12.258Z,35.83
2023-05-15T22:32:42.474Z,48.28
2023-05-15T22:35:12.887Z,36.17
2023-05-15T22:37:43.288Z,43.17
2023-05-15T22:40:13.250Z,43.22
2023-05-15T22:42:42.422Z,42.42
2023-05-15T22:45:11.920Z,47.17
2023-05-15T22:47:41.240Z,49.75
2023-05-15T22:50:10.868Z,52.63
2023-05-15T22:52:40.198Z,54.35
2023-05-15T22:55:23.748Z,58.42
2023-05-15T22:57:52.688Z,54.42
2023-05-15T23:00:21.998Z,53.85
2023-05-15T23:02:51.120Z,46.28
2023-05-15T23:05:20.336Z,39.55
2023-05-15T23:08:29.107Z,40.38
2023-05-15T23:10:58.070Z,42.80
2023-05-15T23:13:28.149Z,38.25
2023-05-15T23:15:57.244Z,93.72
2023-05-15T23:18:26.852Z,92.15
2023-05-15T23:20:55.840Z,40.95
2023-05-15T23:23:24.843Z,57.38
2023-05-15T23:25:53.795Z,47.28
2023-05-15T23:28:22.937Z,39.08
2023-05-15T23:30:55.007Z,39.75
2023-05-15T23:33:24.953Z,36.78
2023-05-15T23:35:54.072Z,39.78
2023-05-15T23:38:24.665Z,43.50
2023-05-15T23:40:54.448Z,43.40
2023-05-15T23:43:23.550Z,39.65
2023-05-15T23:45:52.524Z,44.20
2023-05-15T23:48:21.567Z,41.60
2023-05-15T23:50:50.648Z,43.17
2023-05-15T23:53:19.586Z,43.67
2023-05-15T23:55:48.938Z,33.00
2023-05-15T23:58:18.033Z,39.67
